Claude, Oregon
Current Conditions -  °F | °C
As of 4:53 PM on Sunday 25 Jan 2015 (Local Time) from KONO Reporting Station
Overcast Overcast  
Wind Chill:   Ceiling: 1700
Heat Index:   Visibility: 7mi
Dew Point:   Wind: 6mph
Humidity: 76%   Direction: 270°W
Pressure: 30.45"   Gusts: NA
Location:  44.0817°N, 117.014°W
Report Text: KONO 252353Z AUTO 27005KT 7SM OVC017 04/00 A3045 RMK AO2 SLP330 T00390000 10044 20017 56010
Loading
Personal Weather Stations






























Interactive Weather Map New forecast layout! Learn more

10-Day Weather Forecast

Advertisements
Track Severe Weather on mobile